Terminal Aerodrome Forecast
Issued by NWS Cleveland, OH

Home | Current Version | Previous Version | Graphics & Text | Print | Product List | Glossary On
Versions: 1 2 3 4 5 6 7 8 9 10 11 12 13 14 15 16 17 18 19
000
FTUS41 KCLE 080500
TAFMFD
TAF
KMFD 080529Z 0806/0906 22008KT P6SM SCT025 OVC150
      TEMPO 0808/0810 5SM BR SCT015 BKN025
     FM081000 21010KT 5SM BR OVC015
     FM081500 21012G20KT P6SM VCTS SCT015 OVC025CB
     FM081900 23015G25KT P6SM BKN035
     FM082300 24012G20KT P6SM VCTS SCT025 OVC035CB
     FM090200 22008KT P6SM FEW100 SCT250=

USA.gov is the U.S. government's official web portal to all federal, state and local government web resources and services.